createdAt,value
2018-05-25T00:01:57.897Z,91.30
2018-05-25T00:04:24.937Z,91.00
2018-05-25T00:06:52.003Z,91.40
2018-05-25T00:09:18.294Z,91.40
2018-05-25T00:11:44.558Z,91.10
2018-05-25T00:14:10.803Z,90.90
2018-05-25T00:16:37.039Z,91.50
2018-05-25T00:19:03.272Z,91.50
2018-05-25T00:21:29.501Z,91.30
2018-05-25T00:23:55.787Z,91.60
2018-05-25T00:26:22.773Z,91.50
2018-05-25T00:28:48.987Z,91.40
2018-05-25T00:31:15.224Z,91.00
2018-05-25T00:33:41.433Z,91.30
2018-05-25T00:36:07.647Z,91.60
2018-05-25T00:38:34.593Z,91.20
2018-05-25T00:41:01.562Z,91.00
2018-05-25T00:43:27.771Z,91.00
2018-05-25T00:45:54.082Z,90.90
2018-05-25T00:48:21.055Z,90.70
2018-05-25T00:50:47.290Z,90.70
2018-05-25T00:53:13.518Z,90.70
2018-05-25T00:55:39.774Z,90.80
2018-05-25T00:58:06.015Z,90.60
2018-05-25T01:00:32.284Z,90.40
2018-05-25T01:02:58.510Z,90.60
2018-05-25T01:05:24.713Z,90.40
2018-05-25T01:07:50.955Z,90.20
2018-05-25T01:10:17.925Z,90.20
2018-05-25T01:12:44.137Z,90.20
2018-05-25T01:15:10.361Z,90.30
2018-05-25T01:17:51.450Z,90.00
2018-05-25T01:20:17.798Z,89.80
2018-05-25T01:22:44.009Z,90.20
2018-05-25T01:25:10.230Z,90.20
2018-05-25T01:27:36.452Z,90.00
2018-05-25T01:30:02.689Z,89.30
2018-05-25T01:32:28.933Z,89.40
2018-05-25T01:34:55.145Z,90.00
2018-05-25T01:37:21.361Z,89.80
2018-05-25T01:39:47.597Z,89.70
2018-05-25T01:42:13.830Z,89.70
2018-05-25T01:44:40.050Z,89.60
2018-05-25T01:47:06.262Z,88.70
2018-05-25T01:49:33.296Z,89.80
2018-05-25T01:51:59.531Z,89.70
2018-05-25T01:54:26.505Z,89.80
2018-05-25T01:56:52.835Z,89.70
2018-05-25T01:59:19.054Z,89.80
2018-05-25T02:01:45.273Z,90.10
2018-05-25T02:04:11.492Z,90.20
2018-05-25T02:06:38.478Z,90.10
2018-05-25T02:09:04.746Z,90.00
2018-05-25T02:11:30.949Z,90.20
2018-05-25T02:13:57.957Z,90.50
2018-05-25T02:16:24.176Z,90.50
2018-05-25T02:18:50.406Z,90.80
2018-05-25T02:21:16.627Z,90.80
2018-05-25T02:23:42.977Z,91.20
2018-05-25T02:26:09.193Z,90.90
2018-05-25T02:28:35.392Z,91.00
2018-05-25T02:31:01.598Z,91.20
2018-05-25T02:33:27.818Z,91.60
2018-05-25T02:35:54.036Z,91.50
2018-05-25T02:38:20.258Z,91.50
2018-05-25T02:40:46.459Z,91.30
2018-05-25T02:43:12.644Z,91.40
2018-05-25T02:45:38.863Z,91.10
2018-05-25T02:48:05.095Z,91.40
2018-05-25T02:50:31.367Z,91.50
2018-05-25T02:52:57.582Z,91.50
2018-05-25T02:55:24.538Z,91.80
2018-05-25T02:57:50.762Z,91.80
2018-05-25T03:00:17.013Z,91.80
2018-05-25T03:02:43.214Z,92.00
2018-05-25T03:05:10.199Z,92.50
2018-05-25T03:07:36.430Z,92.80
2018-05-25T03:10:02.658Z,92.40
2018-05-25T03:12:28.849Z,92.40
2018-05-25T03:14:55.089Z,92.60
2018-05-25T03:17:21.314Z,92.70
2018-05-25T03:19:47.543Z,93.40
2018-05-25T03:22:13.726Z,93.20
2018-05-25T03:24:39.960Z,93.10
2018-05-25T03:27:06.949Z,93.80
2018-05-25T03:29:33.174Z,93.60
2018-05-25T03:31:59.364Z,93.60
2018-05-25T03:34:26.315Z,93.60
2018-05-25T03:36:53.269Z,93.70
2018-05-25T03:39:20.197Z,93.70
2018-05-25T03:41:47.167Z,94.40
2018-05-25T03:44:13.402Z,94.40
2018-05-25T03:46:39.634Z,94.20
2018-05-25T03:49:05.847Z,94.20
2018-05-25T03:51:32.095Z,94.30
2018-05-25T03:53:58.305Z,94.20
2018-05-25T03:56:24.532Z,94.30
2018-05-25T03:59:03.060Z,94.40
2018-05-25T04:01:45.226Z,94.60
2018-05-25T04:04:13.098Z,94.50
2018-05-25T04:06:40.068Z,94.40
2018-05-25T04:09:06.283Z,94.40
2018-05-25T04:11:32.484Z,94.50
2018-05-25T04:13:58.718Z,94.60
2018-05-25T04:16:25.665Z,94.50
2018-05-25T04:18:52.610Z,94.40
2018-05-25T04:21:19.542Z,94.20
2018-05-25T04:23:45.764Z,94.20
2018-05-25T04:26:13.633Z,94.10
2018-05-25T04:28:40.567Z,94.00
2018-05-25T04:31:06.781Z,94.10
2018-05-25T04:33:33.016Z,94.10
2018-05-25T04:35:59.303Z,94.10
2018-05-25T04:38:25.517Z,94.10
2018-05-25T04:40:51.766Z,94.10
2018-05-25T04:43:17.998Z,94.00
2018-05-25T04:45:44.286Z,94.00
2018-05-25T04:48:11.269Z,94.20
2018-05-25T04:50:38.218Z,93.90
2018-05-25T04:53:04.463Z,93.90
2018-05-25T04:55:30.676Z,94.10
2018-05-25T04:57:56.936Z,93.70
2018-05-25T05:00:23.145Z,93.70
2018-05-25T05:02:49.346Z,93.30
2018-05-25T05:05:15.588Z,93.00
2018-05-25T05:07:41.890Z,93.10
2018-05-25T05:10:08.107Z,93.00
2018-05-25T05:12:35.064Z,92.40
2018-05-25T05:15:01.306Z,92.30
2018-05-25T05:17:27.516Z,92.10
2018-05-25T05:19:53.759Z,91.30
2018-05-25T05:22:20.075Z,90.90
2018-05-25T05:24:46.275Z,90.30
2018-05-25T05:27:13.230Z,87.00
2018-05-25T05:29:40.183Z,86.60
2018-05-25T05:32:07.178Z,85.60
2018-05-25T05:34:33.418Z,85.50
2018-05-25T05:36:59.618Z,84.90
2018-05-25T05:39:25.829Z,84.60
2018-05-25T05:41:52.058Z,84.40
2018-05-25T05:44:18.296Z,84.00
2018-05-25T05:46:44.525Z,85.00
2018-05-25T05:49:10.745Z,84.60
2018-05-25T05:51:36.950Z,84.40
2018-05-25T05:54:03.177Z,85.30
2018-05-25T05:56:30.125Z,84.50
2018-05-25T05:58:56.463Z,84.60
2018-05-25T06:01:22.739Z,83.90
2018-05-25T06:03:48.966Z,83.80
2018-05-25T06:06:15.212Z,83.40
2018-05-25T06:08:41.446Z,82.60
2018-05-25T06:11:08.391Z,82.50
2018-05-25T06:13:35.357Z,82.30
2018-05-25T06:16:01.621Z,81.80
2018-05-25T06:18:27.858Z,80.30
2018-05-25T06:20:54.090Z,80.40
2018-05-25T06:23:20.369Z,79.30
2018-05-25T06:25:47.359Z,79.00
2018-05-25T06:28:13.549Z,79.00
2018-05-25T06:30:39.790Z,78.30
2018-05-25T06:33:06.773Z,76.80
2018-05-25T06:35:32.974Z,76.70
2018-05-25T06:37:59.222Z,76.80
2018-05-25T06:40:25.471Z,76.50
2018-05-25T06:42:51.677Z,75.70
2018-05-25T06:45:17.911Z,74.60
2018-05-25T06:47:44.114Z,74.70
2018-05-25T06:50:10.372Z,75.00
2018-05-25T06:52:36.618Z,75.20
2018-05-25T06:55:03.606Z,74.80
2018-05-25T06:57:29.835Z,74.80
2018-05-25T06:59:56.066Z,74.90
2018-05-25T07:02:22.293Z,74.30
2018-05-25T07:04:48.530Z,74.20
2018-05-25T07:07:14.754Z,73.90
2018-05-25T07:12:13.963Z,73.50
2018-05-25T07:14:40.180Z,72.90
2018-05-25T07:17:06.433Z,72.40
2018-05-25T07:19:32.697Z,72.10
2018-05-25T07:21:59.668Z,70.80
2018-05-25T07:24:25.896Z,70.80
2018-05-25T07:26:52.176Z,69.90
2018-05-25T07:29:18.602Z,69.20
2018-05-25T07:31:44.830Z,66.20
2018-05-25T07:34:11.051Z,58.90
2018-05-25T07:36:37.278Z,54.40
2018-05-25T07:39:03.578Z,48.70
2018-05-25T07:41:29.902Z,45.00
2018-05-25T07:43:56.193Z,42.80
2018-05-25T07:46:22.421Z,40.90
2018-05-25T07:48:48.659Z,39.00
2018-05-25T07:51:15.689Z,35.90
2018-05-25T07:53:41.901Z,35.90
2018-05-25T07:56:08.170Z,34.80
2018-05-25T07:58:35.130Z,33.80
2018-05-25T08:01:01.368Z,33.80
2018-05-25T08:03:27.634Z,34.80
2018-05-25T08:05:53.904Z,37.80
2018-05-25T08:08:20.835Z,42.70
2018-05-25T08:10:47.826Z,44.20
2018-05-25T08:13:14.045Z,44.10
2018-05-25T08:15:40.283Z,45.60
2018-05-25T08:18:06.506Z,45.60
2018-05-25T08:20:32.711Z,45.20
2018-05-25T08:22:58.966Z,42.40
2018-05-25T08:25:25.950Z,36.10
2018-05-25T08:27:52.194Z,36.00
2018-05-25T08:30:19.202Z,33.40
2018-05-25T08:32:45.451Z,34.10
2018-05-25T08:35:11.657Z,33.10
2018-05-25T08:37:37.944Z,33.00
2018-05-25T08:40:04.874Z,33.80
2018-05-25T08:42:31.857Z,35.50
2018-05-25T08:44:58.092Z,35.50
2018-05-25T08:47:24.324Z,36.40
2018-05-25T08:49:50.570Z,35.70
2018-05-25T08:52:16.817Z,33.90
2018-05-25T08:54:43.800Z,30.60
2018-05-25T08:57:10.017Z,30.60
2018-05-25T08:59:36.318Z,30.70
2018-05-25T09:02:03.325Z,31.30
2018-05-25T09:04:29.525Z,31.20
2018-05-25T09:06:55.774Z,32.20
2018-05-25T09:09:28.856Z,33.60
2018-05-25T09:11:55.090Z,34.70
2018-05-25T09:14:21.310Z,36.20
2018-05-25T09:16:47.535Z,36.50
2018-05-25T09:19:13.765Z,38.50
2018-05-25T09:21:40.200Z,39.70
2018-05-25T09:24:06.362Z,40.10
2018-05-25T09:26:32.578Z,39.30
2018-05-25T09:28:58.818Z,39.60
2018-05-25T09:31:25.037Z,39.50
2018-05-25T09:33:51.328Z,36.20
2018-05-25T09:36:17.589Z,35.20
2018-05-25T09:38:43.818Z,31.20
2018-05-25T09:41:10.021Z,29.50
2018-05-25T09:43:36.254Z,27.80
2018-05-25T09:46:02.543Z,25.80
2018-05-25T09:48:29.490Z,24.70
2018-05-25T09:50:55.756Z,24.70
2018-05-25T09:53:22.018Z,24.80
2018-05-25T09:55:48.250Z,25.00
2018-05-25T09:58:14.478Z,26.10
2018-05-25T10:00:41.482Z,28.30
2018-05-25T10:03:07.753Z,27.90
2018-05-25T10:05:33.973Z,27.80
2018-05-25T10:08:00.230Z,27.80
2018-05-25T10:10:27.214Z,27.80
2018-05-25T10:12:53.522Z,27.70
2018-05-25T10:15:19.765Z,27.70
2018-05-25T10:17:46.032Z,27.40
2018-05-25T10:20:12.994Z,31.70
2018-05-25T10:22:39.299Z,31.60
2018-05-25T10:25:05.643Z,35.10
2018-05-25T10:27:31.874Z,36.20
2018-05-25T10:29:58.209Z,34.50
2018-05-25T10:32:25.182Z,30.70
2018-05-25T10:34:51.415Z,30.00
2018-05-25T10:37:17.671Z,29.20
2018-05-25T10:39:43.932Z,27.70
2018-05-25T10:42:10.164Z,26.30
2018-05-25T10:44:37.134Z,26.00
2018-05-25T10:47:03.512Z,25.90
2018-05-25T10:49:29.737Z,24.90
2018-05-25T10:51:55.949Z,24.40
2018-05-25T10:54:22.191Z,24.40
2018-05-25T10:56:48.477Z,24.10
2018-05-25T10:59:14.687Z,24.70
2018-05-25T11:01:41.663Z,26.80
2018-05-25T11:04:07.885Z,26.80
2018-05-25T11:06:34.091Z,29.70
2018-05-25T11:09:01.059Z,32.90
2018-05-25T11:11:27.314Z,32.90
2018-05-25T11:13:53.562Z,34.50
2018-05-25T11:16:19.784Z,34.30
2018-05-25T11:18:45.981Z,35.00
2018-05-25T11:21:12.266Z,36.20
2018-05-25T11:23:39.264Z,39.30
2018-05-25T11:26:05.649Z,39.20
2018-05-25T11:28:32.625Z,41.90
2018-05-25T11:30:58.870Z,41.80
2018-05-25T11:33:25.185Z,42.10
2018-05-25T11:35:51.429Z,43.10
2018-05-25T11:38:17.679Z,42.70
2018-05-25T11:40:43.920Z,39.30
2018-05-25T11:43:10.208Z,35.90
2018-05-25T11:45:36.468Z,34.30
2018-05-25T11:48:02.710Z,33.10
2018-05-25T11:50:29.038Z,33.00
2018-05-25T11:52:55.332Z,32.80
2018-05-25T11:55:21.630Z,33.70
2018-05-25T11:57:47.859Z,34.00
2018-05-25T12:00:14.133Z,35.70
2018-05-25T12:02:40.386Z,36.70
2018-05-25T12:05:07.380Z,40.10
2018-05-25T12:07:33.625Z,39.90
2018-05-25T12:09:59.847Z,40.10
2018-05-25T12:12:26.086Z,41.00
2018-05-25T12:14:52.384Z,40.50
2018-05-25T12:17:18.650Z,41.20
2018-05-25T12:19:44.862Z,40.30
2018-05-25T12:22:11.164Z,39.00
2018-05-25T12:24:37.409Z,40.10
2018-05-25T12:27:03.629Z,40.80
2018-05-25T12:29:29.843Z,40.70
2018-05-25T12:31:56.116Z,40.60
2018-05-25T12:34:22.365Z,39.60
2018-05-25T12:36:49.306Z,40.80
2018-05-25T12:39:15.641Z,40.70
2018-05-25T12:41:41.890Z,41.00
2018-05-25T12:44:08.854Z,42.30
2018-05-25T12:46:35.091Z,42.20
2018-05-25T12:49:01.314Z,42.30
2018-05-25T12:51:28.543Z,43.00
2018-05-25T12:53:54.860Z,42.70
2018-05-25T12:56:21.798Z,41.00
2018-05-25T12:58:48.762Z,39.20
2018-05-25T13:01:15.013Z,39.20
2018-05-25T13:03:41.256Z,40.10
2018-05-25T13:06:07.467Z,39.20
2018-05-25T13:08:33.733Z,40.10
2018-05-25T13:11:00.086Z,41.00
2018-05-25T13:13:27.079Z,42.60
2018-05-25T13:15:53.347Z,42.60
2018-05-25T13:18:19.600Z,43.90
2018-05-25T13:20:46.559Z,43.50
2018-05-25T13:23:12.778Z,43.50
2018-05-25T13:25:39.013Z,44.00
2018-05-25T13:28:05.350Z,44.20
2018-05-25T13:30:31.623Z,44.50
2018-05-25T13:32:57.846Z,45.30
2018-05-25T13:35:24.078Z,45.30
2018-05-25T13:37:50.339Z,46.60
2018-05-25T13:40:17.425Z,46.80
2018-05-25T13:42:43.670Z,46.80
2018-05-25T13:45:09.894Z,45.90
2018-05-25T13:47:36.155Z,45.50
2018-05-25T13:50:03.234Z,44.00
2018-05-25T13:52:29.474Z,44.00
2018-05-25T13:54:55.728Z,43.40
2018-05-25T13:57:21.955Z,42.80
2018-05-25T13:59:48.178Z,41.70
2018-05-25T14:02:14.472Z,41.30
2018-05-25T14:04:40.750Z,41.00
2018-05-25T14:07:07.025Z,41.50
2018-05-25T14:09:33.243Z,40.40
2018-05-25T14:12:00.220Z,38.90
2018-05-25T14:14:26.482Z,38.90
2018-05-25T14:16:52.722Z,38.50
2018-05-25T14:19:18.953Z,39.20
2018-05-25T14:21:45.171Z,39.60
2018-05-25T14:24:11.444Z,40.30
2018-05-25T14:26:37.667Z,39.90
2018-05-25T14:29:03.975Z,40.70
2018-05-25T14:31:30.962Z,42.80
2018-05-25T14:33:57.929Z,42.80
2018-05-25T14:36:24.154Z,43.20
2018-05-25T14:38:50.397Z,43.60
2018-05-25T14:41:16.682Z,44.10
2018-05-25T14:43:43.609Z,45.30
2018-05-25T14:46:09.868Z,45.20
2018-05-25T14:48:36.072Z,45.60
2018-05-25T14:51:02.349Z,46.30
2018-05-25T14:53:28.583Z,47.20
2018-05-25T14:55:54.850Z,47.30
2018-05-25T14:58:21.119Z,47.50
2018-05-25T15:00:47.358Z,46.80
2018-05-25T15:03:13.578Z,47.40
2018-05-25T15:05:39.807Z,47.10
2018-05-25T15:08:06.058Z,48.10
2018-05-25T15:10:32.295Z,48.10
2018-05-25T15:12:58.548Z,46.30
2018-05-25T15:15:24.823Z,46.80
2018-05-25T15:17:51.033Z,46.40
2018-05-25T15:20:17.270Z,47.00
2018-05-25T15:22:43.498Z,47.50
2018-05-25T15:25:09.783Z,47.90
2018-05-25T15:27:36.027Z,47.50
2018-05-25T15:30:02.285Z,47.50
2018-05-25T15:32:28.573Z,47.50
2018-05-25T15:34:54.830Z,47.30
2018-05-25T15:37:21.040Z,48.10
2018-05-25T15:39:47.310Z,48.90
2018-05-25T15:42:14.405Z,49.70
2018-05-25T15:44:47.348Z,50.30
2018-05-25T15:47:14.513Z,51.00
2018-05-25T15:49:40.774Z,50.90
2018-05-25T15:52:07.023Z,51.60
2018-05-25T15:54:34.807Z,51.50
2018-05-25T15:57:01.042Z,51.40
2018-05-25T15:59:27.331Z,51.20
2018-05-25T16:01:54.464Z,51.10
2018-05-25T16:04:21.088Z,51.00
2018-05-25T16:06:48.066Z,51.90
2018-05-25T16:09:14.286Z,51.90
2018-05-25T16:11:40.525Z,51.70
2018-05-25T16:14:06.946Z,52.20
2018-05-25T16:16:33.186Z,49.40
2018-05-25T16:18:59.431Z,49.10
2018-05-25T16:21:25.645Z,48.40
2018-05-25T16:23:52.065Z,48.40
2018-05-25T16:26:18.305Z,47.70
2018-05-25T16:28:44.701Z,47.30
2018-05-25T16:31:11.018Z,47.10
2018-05-25T16:33:38.013Z,46.20
2018-05-25T16:36:04.238Z,46.20
2018-05-25T16:38:30.476Z,45.70
2018-05-25T16:40:56.681Z,44.70
2018-05-25T16:43:23.012Z,44.50
2018-05-25T16:45:49.390Z,44.40
2018-05-25T16:48:15.683Z,44.60
2018-05-25T16:50:41.916Z,44.50
2018-05-25T16:53:08.160Z,44.40
2018-05-25T16:55:39.940Z,44.40
2018-05-25T16:58:06.179Z,45.20
2018-05-25T17:00:33.166Z,45.10
2018-05-25T17:02:59.375Z,45.10
2018-05-25T17:05:25.583Z,45.20
2018-05-25T17:07:52.564Z,46.20
2018-05-25T17:10:18.803Z,46.20
2018-05-25T17:12:45.077Z,46.60
2018-05-25T17:15:11.251Z,47.50
2018-05-25T17:17:37.478Z,47.40
2018-05-25T17:20:03.715Z,47.90
2018-05-25T17:22:29.951Z,48.30
2018-05-25T17:24:56.191Z,48.50
2018-05-25T17:27:22.428Z,48.40
2018-05-25T17:29:48.697Z,48.50
2018-05-25T17:32:15.049Z,49.00
2018-05-25T17:34:41.366Z,49.00
2018-05-25T17:37:07.580Z,49.60
2018-05-25T17:39:34.622Z,50.00
2018-05-25T17:42:00.959Z,50.00
2018-05-25T17:44:27.417Z,50.50
2018-05-25T17:46:53.812Z,51.30
2018-05-25T17:49:20.873Z,51.40
2018-05-25T17:51:47.901Z,51.40
2018-05-25T17:54:14.183Z,51.50
2018-05-25T17:56:40.415Z,51.90
2018-05-25T17:59:06.690Z,52.30
2018-05-25T18:01:33.669Z,53.20
2018-05-25T18:03:59.934Z,53.10
2018-05-25T18:06:26.228Z,53.50
2018-05-25T18:08:52.474Z,53.80
2018-05-25T18:11:18.862Z,53.50
2018-05-25T18:13:45.102Z,53.40
2018-05-25T18:16:11.345Z,53.30
2018-05-25T18:18:37.601Z,53.40
2018-05-25T18:21:03.873Z,53.10
2018-05-25T18:23:30.115Z,53.20
2018-05-25T18:25:56.358Z,53.40
2018-05-25T18:28:22.608Z,53.30
2018-05-25T18:30:48.873Z,53.40
2018-05-25T18:33:15.845Z,53.60
2018-05-25T18:35:42.071Z,53.60
2018-05-25T18:38:08.317Z,53.70
2018-05-25T18:40:34.525Z,54.20
2018-05-25T18:43:00.763Z,54.30
2018-05-25T18:45:27.025Z,54.40
2018-05-25T18:47:54.007Z,54.70
2018-05-25T18:50:20.986Z,55.10
2018-05-25T18:52:47.206Z,55.00
2018-05-25T18:55:13.440Z,55.50
2018-05-25T18:57:39.781Z,55.10
2018-05-25T19:00:06.070Z,55.40
2018-05-25T19:02:33.053Z,55.40
2018-05-25T19:04:59.293Z,55.30
2018-05-25T19:07:25.510Z,56.20
2018-05-25T19:09:51.744Z,55.80
2018-05-25T19:12:18.007Z,56.10
2018-05-25T19:14:44.217Z,56.10
2018-05-25T19:17:10.458Z,56.50
2018-05-25T19:19:36.711Z,56.70
2018-05-25T19:22:03.678Z,57.20
2018-05-25T19:24:29.985Z,57.20
2018-05-25T19:26:57.081Z,57.90
2018-05-25T19:29:23.292Z,57.90
2018-05-25T19:31:49.544Z,58.10
2018-05-25T19:34:15.769Z,58.00
2018-05-25T19:36:42.047Z,58.70
2018-05-25T19:39:08.267Z,59.50
2018-05-25T19:41:35.260Z,59.00
2018-05-25T19:44:01.484Z,59.00
2018-05-25T19:46:27.722Z,59.60
2018-05-25T19:48:53.950Z,60.00
2018-05-25T19:51:20.289Z,60.50
2018-05-25T19:53:46.536Z,60.40
2018-05-25T19:56:12.762Z,60.40
2018-05-25T19:58:39.075Z,60.60
2018-05-25T20:01:05.307Z,61.30
2018-05-25T20:03:31.546Z,61.20
2018-05-25T20:05:58.536Z,61.70
2018-05-25T20:08:24.766Z,61.70
2018-05-25T20:10:51.044Z,61.70
2018-05-25T20:13:17.317Z,61.70
2018-05-25T20:15:44.349Z,62.00
2018-05-25T20:18:11.333Z,62.70
2018-05-25T20:20:37.550Z,62.80
2018-05-25T20:23:03.917Z,63.20
2018-05-25T20:25:30.212Z,62.80
2018-05-25T20:27:56.516Z,63.70
2018-05-25T20:30:22.763Z,63.90
2018-05-25T20:32:49.050Z,63.80
2018-05-25T20:35:15.471Z,64.30
2018-05-25T20:37:41.824Z,65.80
2018-05-25T20:40:08.838Z,65.40
2018-05-25T20:42:35.109Z,65.40
2018-05-25T20:45:01.374Z,65.60
2018-05-25T20:47:27.627Z,66.40
2018-05-25T20:49:53.876Z,66.40
2018-05-25T20:52:20.906Z,67.60
2018-05-25T20:54:47.913Z,67.90
2018-05-25T20:57:14.598Z,67.60
2018-05-25T20:59:40.830Z,67.90
2018-05-25T21:02:07.864Z,68.80
2018-05-25T21:04:34.070Z,68.80
2018-05-25T21:07:00.321Z,68.50
2018-05-25T21:09:27.260Z,69.60
2018-05-25T21:11:54.369Z,70.80
2018-05-25T21:14:20.631Z,70.60
2018-05-25T21:16:46.825Z,71.00
2018-05-25T21:19:13.070Z,70.10
2018-05-25T21:21:39.324Z,71.00
2018-05-25T21:24:05.630Z,72.20
2018-05-25T21:26:31.874Z,72.30
2018-05-25T21:28:58.209Z,72.60
2018-05-25T21:31:24.537Z,73.30
2018-05-25T21:33:50.800Z,73.10
2018-05-25T21:36:17.108Z,73.00
2018-05-25T21:38:43.307Z,73.10
2018-05-25T21:41:09.522Z,74.20
2018-05-25T21:43:35.763Z,75.20
2018-05-25T21:46:01.964Z,75.90
2018-05-25T21:48:28.187Z,76.10
2018-05-25T21:50:54.427Z,76.20
2018-05-25T21:53:20.654Z,76.10
2018-05-25T21:55:48.105Z,77.70
2018-05-25T21:58:14.332Z,78.30
2018-05-25T22:00:40.595Z,78.90
2018-05-25T22:03:06.822Z,79.00
2018-05-25T22:05:33.116Z,79.50
2018-05-25T22:07:59.391Z,78.80
2018-05-25T22:10:25.622Z,78.20
2018-05-25T22:12:51.940Z,78.50
2018-05-25T22:15:18.149Z,79.50
2018-05-25T22:17:44.419Z,80.30
2018-05-25T22:20:11.395Z,80.60
2018-05-25T22:22:37.622Z,80.60
2018-05-25T22:25:03.903Z,81.40
2018-05-25T22:27:30.133Z,82.70
2018-05-25T22:29:56.402Z,81.90
2018-05-25T22:32:22.628Z,82.40
2018-05-25T22:34:48.873Z,82.30
2018-05-25T22:37:15.064Z,82.00
2018-05-25T22:39:43.250Z,83.10
2018-05-25T22:42:09.239Z,83.00
2018-05-25T22:44:47.719Z,83.20
2018-05-25T22:47:26.183Z,83.50
2018-05-25T22:50:05.534Z,85.50
2018-05-25T22:52:37.763Z,85.50
2018-05-25T22:55:11.433Z,86.00
2018-05-25T22:57:37.778Z,86.00
2018-05-25T23:00:04.021Z,85.50
2018-05-25T23:02:30.267Z,85.90
2018-05-25T23:04:56.464Z,86.10
2018-05-25T23:07:22.704Z,87.00
2018-05-25T23:09:48.953Z,87.00
2018-05-25T23:12:15.901Z,86.60
2018-05-25T23:14:42.857Z,86.60
2018-05-25T23:17:09.829Z,87.70
2018-05-25T23:19:36.028Z,87.50
2018-05-25T23:22:02.990Z,86.60
2018-05-25T23:24:29.198Z,86.60
2018-05-25T23:26:56.224Z,86.30
2018-05-25T23:29:22.438Z,86.20
2018-05-25T23:31:48.695Z,86.90
2018-05-25T23:34:15.661Z,87.10
2018-05-25T23:36:41.853Z,87.10
2018-05-25T23:39:08.246Z,87.40
2018-05-25T23:41:34.448Z,87.80
2018-05-25T23:44:00.676Z,88.00
2018-05-25T23:46:26.893Z,88.90
2018-05-25T23:48:53.119Z,89.00
2018-05-25T23:51:20.082Z,89.40
2018-05-25T23:53:46.298Z,89.40
2018-05-25T23:56:12.489Z,90.10
2018-05-25T23:58:38.731Z,90.00
